Kezdőlap
METAR-TAF:

METAR-TAF

Repülőterek :

Samsun, Törökország

földrajzi szélesség: 41-15-15N, földrajzi hosszúság: 036-34-03E, magasság: 5 m

Jelenlegi meteorológiai megfigyelések

A jelentés 27 perccel ezelõtt készült, 15:50 UTC
Észak-északnyugati szél 4 kt
Hőmérséklet 22°C
Páratartalom 57%
Légköri nyomás 1018 hPa
Látótávolság 10 km, vagy több
Szórványos felhőzet 3600 lábon
Szakadozott felhőzet 10000 lábon

METAR: LTFH 261550Z 34004KT 9999 SCT036 BKN100 22/13 Q1018 NOSIG

Idő: 19:17 (16:17 UTC)

Előrejelzés

A jelentés 2 órával és 37 perccel ezelõtt készült, 13:40 UTC
Az előrejelzés 26-én 15 óra UTC és 26-én 24 óra UTC között érvényes
Különbözõ irányokból fújó szél 2 kt
Látótávolság 10 km, vagy több
Szórványos felhőzet 3600 lábon
Szakadozott felhőzet 10000 lábon

TAF: LTFH 261340Z 2615/2624 VRB02KT 9999 SCT036 BKN100

Meteorológiai megfigyelések és előrejelzések több, mint 4000 repülőtéren (METAR és TAF jelentéseket).

A térképen piros és sárga pontok jelzik az elérhető meteorológiai állomásokat.

Mozgassa az egeret a pont fölött, hogy megjelenjen az állomás neve.

Azután kattintson az időjárási megfigyelések és előrejelzések megtekintéséhez.

A térkép megváltoztatása: kattintson a fekete keresztel jelölt zöld gombra ráközelítéshez, a vonallal jelölt zöld gombra távolításhoz, vagy a zöld nyilakra a szomszédos térképek eléréséhez.


METAR-TAF: